This is the latest recevied weather packets stored in our database for station/object AC1IX. If no packets are shown the sender has not sent any weather packets the latest 10 day(s).
| Time | Temp. | Humidity | Pressure | Rain* | Wind** | Luminosity | Snow |
|---|---|---|---|---|---|---|---|
| 1777340028 | 13.33° C | 52% | 1024.2 hPa | 0 mm | - | 0 W/m² | - |
| 1777339726 | 12.78° C | 51% | 1024.4 hPa | 0 mm | - | 0 W/m² | - |
| 1777339423 | 13.33° C | 55% | 1024.4 hPa | 0 mm | - | 0 W/m² | - |
| 1777339120 | 13.33° C | 52% | 1024.2 hPa | 0 mm | - | 0 W/m² | - |
| 1777338818 | 13.33° C | 52% | 1024.3 hPa | 0 mm | - | 0 W/m² | - |
| 1777338515 | 13.33° C | 57% | 1024.1 hPa | 0 mm | - | 0 W/m² | - |
| 1777337908 | 13.89° C | 55% | 1024 hPa | 0 mm | - | 0 W/m² | - |
| 1777337303 | 13.33° C | 55% | 1024 hPa | 0 mm | - | 0 W/m² | - |
| 1777337000 | 13.33° C | 53% | 1023.7 hPa | 0 mm | - | 0 W/m² | - |
| 1777313690 | 23.33° C | 29% | 1023.7 hPa | 0 mm | - | 675 W/m² | - |
| 1777312780 | 22.22° C | 31% | 1024 hPa | 0 mm | - | 696 W/m² | - |
| 1777312477 | 22.22° C | 30% | 1024.2 hPa | 0 mm | - | 479 W/m² | - |
| 1777311568 | 22.78° C | 29% | 1024.1 hPa | 0 mm | - | 717 W/m² | - |
| 1777311266 | 23.33° C | 30% | 1024.3 hPa | 0 mm | - | 724 W/m² | - |
| 1777310963 | 22.78° C | 32% | 1024.5 hPa | 0 mm | - | 712 W/m² | - |
| 1777310358 | 21.67° C | 30% | 1024.3 hPa | 0 mm | - | 675 W/m² | - |
| 1777309451 | 22.78° C | 31% | 1024.5 hPa | 0 mm | - | 726 W/m² | - |
| 1777309148 | 22.22° C | 32% | 1024.3 hPa | 0 mm | - | 734 W/m² | - |
| 1777308846 | 22.78° C | 31% | 1024.7 hPa | 0 mm | - | 748 W/m² | - |
| 1777307327 | 21.67° C | 33% | 1024.8 hPa | 0 mm | - | 699 W/m² | - |
| 1777306119 | 22.78° C | 30% | 1025 hPa | 0 mm | - | 711 W/m² | - |
| 1777305511 | 22.22° C | 33% | 1024.9 hPa | 0 mm | - | 725 W/m² | - |
| 1777305207 | 21.67° C | 33% | 1025.1 hPa | 0 mm | - | 772 W/m² | - |
| 1777304295 | 21.67° C | 35% | 1025 hPa | 0 mm | - | 771 W/m² | - |
| 1777303993 | 21.67° C | 35% | 1025.1 hPa | 0 mm | - | 760 W/m² | - |
* Rain latest hour (hover to see other rain measurements)
** Current wind speed in m/s (hover to see current wind gust speed)